sensor_id;sensor_type;location;lat;lon;timestamp;P1;durP1;ratioP1;P2;durP2;ratioP2
32641;SDS011;19323;56.072;9.698;2022-11-22T00:02:11;2.75;;;0.75;;
32641;SDS011;19323;56.072;9.698;2022-11-22T00:04:36;2.58;;;0.88;;
32641;SDS011;19323;56.072;9.698;2022-11-22T00:07:01;1.17;;;0.55;;
32641;SDS011;19323;56.072;9.698;2022-11-22T00:09:26;1.38;;;0.80;;
32641;SDS011;19323;56.072;9.698;2022-11-22T00:11:52;2.78;;;0.88;;
32641;SDS011;19323;56.072;9.698;2022-11-22T00:14:17;1.92;;;1.13;;
32641;SDS011;19323;56.072;9.698;2022-11-22T00:16:42;2.25;;;0.88;;
32641;SDS011;19323;56.072;9.698;2022-11-22T00:19:08;3.30;;;0.90;;
32641;SDS011;19323;56.072;9.698;2022-11-22T00:21:33;2.30;;;0.85;;
32641;SDS011;19323;56.072;9.698;2022-11-22T00:23:58;0.68;;;0.68;;
32641;SDS011;19323;56.072;9.698;2022-11-22T00:26:24;1.30;;;0.75;;
32641;SDS011;19323;56.072;9.698;2022-11-22T00:28:49;1.48;;;1.02;;
32641;SDS011;19323;56.072;9.698;2022-11-22T00:31:15;1.27;;;0.68;;
32641;SDS011;19323;56.072;9.698;2022-11-22T00:33:40;1.08;;;0.70;;
32641;SDS011;19323;56.072;9.698;2022-11-22T00:36:05;1.17;;;0.75;;
32641;SDS011;19323;56.072;9.698;2022-11-22T00:38:31;1.15;;;0.82;;
32641;SDS011;19323;56.072;9.698;2022-11-22T00:40:56;1.63;;;0.88;;
32641;SDS011;19323;56.072;9.698;2022-11-22T00:43:21;2.03;;;0.90;;
32641;SDS011;19323;56.072;9.698;2022-11-22T00:45:47;0.98;;;0.75;;
32641;SDS011;19323;56.072;9.698;2022-11-22T00:48:12;1.67;;;1.08;;
32641;SDS011;19323;56.072;9.698;2022-11-22T00:50:37;1.52;;;0.68;;
32641;SDS011;19323;56.072;9.698;2022-11-22T00:53:03;1.77;;;0.60;;
32641;SDS011;19323;56.072;9.698;2022-11-22T00:55:28;1.10;;;0.70;;
32641;SDS011;19323;56.072;9.698;2022-11-22T00:57:53;2.35;;;0.80;;
32641;SDS011;19323;56.072;9.698;2022-11-22T01:00:19;1.00;;;0.90;;
32641;SDS011;19323;56.072;9.698;2022-11-22T01:02:44;0.63;;;0.40;;
32641;SDS011;19323;56.072;9.698;2022-11-22T01:05:09;1.35;;;0.80;;
32641;SDS011;19323;56.072;9.698;2022-11-22T01:07:35;3.70;;;0.88;;
32641;SDS011;19323;56.072;9.698;2022-11-22T01:10:00;1.15;;;0.80;;
32641;SDS011;19323;56.072;9.698;2022-11-22T01:12:25;1.25;;;0.98;;
32641;SDS011;19323;56.072;9.698;2022-11-22T01:14:51;1.13;;;0.60;;
32641;SDS011;19323;56.072;9.698;2022-11-22T01:17:16;5.60;;;0.95;;
32641;SDS011;19323;56.072;9.698;2022-11-22T01:19:41;1.27;;;1.02;;
32641;SDS011;19323;56.072;9.698;2022-11-22T01:22:07;0.93;;;0.63;;
32641;SDS011;19323;56.072;9.698;2022-11-22T01:24:32;1.08;;;0.52;;
32641;SDS011;19323;56.072;9.698;2022-11-22T01:26:57;1.02;;;0.60;;
32641;SDS011;19323;56.072;9.698;2022-11-22T01:29:22;0.45;;;0.43;;
32641;SDS011;19323;56.072;9.698;2022-11-22T01:31:48;1.20;;;0.70;;
32641;SDS011;19323;56.072;9.698;2022-11-22T01:34:13;1.00;;;0.60;;
32641;SDS011;19323;56.072;9.698;2022-11-22T01:36:38;3.00;;;0.60;;
32641;SDS011;19323;56.072;9.698;2022-11-22T01:39:03;0.88;;;0.50;;
32641;SDS011;19323;56.072;9.698;2022-11-22T01:41:29;0.90;;;0.60;;
32641;SDS011;19323;56.072;9.698;2022-11-22T01:43:54;1.27;;;0.70;;
32641;SDS011;19323;56.072;9.698;2022-11-22T01:49:01;0.88;;;0.57;;
32641;SDS011;19323;56.072;9.698;2022-11-22T01:54:03;1.02;;;0.60;;
32641;SDS011;19323;56.072;9.698;2022-11-22T01:56:33;0.75;;;0.50;;
32641;SDS011;19323;56.072;9.698;2022-11-22T01:59:01;0.82;;;0.70;;
32641;SDS011;19323;56.072;9.698;2022-11-22T02:01:29;0.80;;;0.73;;
32641;SDS011;19323;56.072;9.698;2022-11-22T02:03:56;0.82;;;0.50;;
32641;SDS011;19323;56.072;9.698;2022-11-22T02:06:24;0.77;;;0.70;;
32641;SDS011;19323;56.072;9.698;2022-11-22T02:09:02;1.73;;;0.43;;
32641;SDS011;19323;56.072;9.698;2022-11-22T02:11:34;0.80;;;0.50;;
32641;SDS011;19323;56.072;9.698;2022-11-22T02:14:01;1.35;;;0.50;;
32641;SDS011;19323;56.072;9.698;2022-11-22T02:16:28;0.40;;;0.40;;
32641;SDS011;19323;56.072;9.698;2022-11-22T02:18:53;0.30;;;0.30;;
32641;SDS011;19323;56.072;9.698;2022-11-22T02:21:19;0.75;;;0.60;;
32641;SDS011;19323;56.072;9.698;2022-11-22T02:23:54;2.08;;;0.70;;
32641;SDS011;19323;56.072;9.698;2022-11-22T02:26:25;0.80;;;0.50;;
32641;SDS011;19323;56.072;9.698;2022-11-22T02:28:53;0.47;;;0.47;;
32641;SDS011;19323;56.072;9.698;2022-11-22T02:31:39;0.73;;;0.70;;
32641;SDS011;19323;56.072;9.698;2022-11-22T02:34:07;2.30;;;0.35;;
32641;SDS011;19323;56.072;9.698;2022-11-22T02:36:34;0.98;;;0.57;;
32641;SDS011;19323;56.072;9.698;2022-11-22T02:39:03;1.65;;;0.65;;
32641;SDS011;19323;56.072;9.698;2022-11-22T02:41:31;5.32;;;0.50;;
32641;SDS011;19323;56.072;9.698;2022-11-22T02:43:56;0.70;;;0.50;;
32641;SDS011;19323;56.072;9.698;2022-11-22T02:46:22;0.57;;;0.52;;
32641;SDS011;19323;56.072;9.698;2022-11-22T02:48:48;2.63;;;0.45;;
32641;SDS011;19323;56.072;9.698;2022-11-22T02:51:14;0.40;;;0.38;;
32641;SDS011;19323;56.072;9.698;2022-11-22T02:53:41;0.60;;;0.30;;
32641;SDS011;19323;56.072;9.698;2022-11-22T02:56:07;0.80;;;0.47;;
32641;SDS011;19323;56.072;9.698;2022-11-22T02:58:33;0.30;;;0.30;;
32641;SDS011;19323;56.072;9.698;2022-11-22T03:00:58;0.98;;;0.50;;
32641;SDS011;19323;56.072;9.698;2022-11-22T03:03:23;0.60;;;0.40;;
32641;SDS011;19323;56.072;9.698;2022-11-22T03:05:48;0.90;;;0.70;;
32641;SDS011;19323;56.072;9.698;2022-11-22T03:08:14;1.02;;;0.47;;
32641;SDS011;19323;56.072;9.698;2022-11-22T03:10:39;1.65;;;0.60;;
32641;SDS011;19323;56.072;9.698;2022-11-22T03:13:04;0.57;;;0.52;;
32641;SDS011;19323;56.072;9.698;2022-11-22T03:15:30;0.85;;;0.47;;
32641;SDS011;19323;56.072;9.698;2022-11-22T03:17:58;1.30;;;0.60;;
32641;SDS011;19323;56.072;9.698;2022-11-22T03:20:25;0.70;;;0.68;;
32641;SDS011;19323;56.072;9.698;2022-11-22T03:22:51;0.30;;;0.30;;
32641;SDS011;19323;56.072;9.698;2022-11-22T03:25:16;0.82;;;0.20;;
32641;SDS011;19323;56.072;9.698;2022-11-22T03:27:41;0.75;;;0.40;;
32641;SDS011;19323;56.072;9.698;2022-11-22T03:30:07;0.73;;;0.47;;
32641;SDS011;19323;56.072;9.698;2022-11-22T03:32:32;0.70;;;0.47;;
32641;SDS011;19323;56.072;9.698;2022-11-22T03:34:57;0.93;;;0.30;;
32641;SDS011;19323;56.072;9.698;2022-11-22T03:37:23;1.83;;;0.40;;
32641;SDS011;19323;56.072;9.698;2022-11-22T03:39:48;0.63;;;0.40;;
32641;SDS011;19323;56.072;9.698;2022-11-22T03:42:13;0.32;;;0.32;;
32641;SDS011;19323;56.072;9.698;2022-11-22T03:44:39;1.92;;;0.50;;
32641;SDS011;19323;56.072;9.698;2022-11-22T03:47:04;0.30;;;0.30;;
32641;SDS011;19323;56.072;9.698;2022-11-22T03:49:29;0.30;;;0.20;;
32641;SDS011;19323;56.072;9.698;2022-11-22T03:51:55;0.40;;;0.30;;
32641;SDS011;19323;56.072;9.698;2022-11-22T03:54:20;0.75;;;0.70;;
32641;SDS011;19323;56.072;9.698;2022-11-22T03:56:45;0.65;;;0.45;;
32641;SDS011;19323;56.072;9.698;2022-11-22T03:59:10;0.70;;;0.40;;
32641;SDS011;19323;56.072;9.698;2022-11-22T04:01:36;0.63;;;0.60;;
32641;SDS011;19323;56.072;9.698;2022-11-22T04:04:01;0.80;;;0.38;;
32641;SDS011;19323;56.072;9.698;2022-11-22T04:06:26;0.52;;;0.40;;
32641;SDS011;19323;56.072;9.698;2022-11-22T04:08:51;1.02;;;0.50;;
32641;SDS011;19323;56.072;9.698;2022-11-22T04:11:17;1.02;;;0.52;;
32641;SDS011;19323;56.072;9.698;2022-11-22T04:13:42;0.30;;;0.30;;
32641;SDS011;19323;56.072;9.698;2022-11-22T04:16:26;0.60;;;0.60;;
32641;SDS011;19323;56.072;9.698;2022-11-22T04:18:51;0.82;;;0.43;;
32641;SDS011;19323;56.072;9.698;2022-11-22T04:21:16;1.77;;;0.63;;
32641;SDS011;19323;56.072;9.698;2022-11-22T04:24:01;2.27;;;0.57;;
32641;SDS011;19323;56.072;9.698;2022-11-22T04:26:45;2.75;;;0.38;;
32641;SDS011;19323;56.072;9.698;2022-11-22T04:29:10;1.13;;;0.52;;
32641;SDS011;19323;56.072;9.698;2022-11-22T04:31:36;2.38;;;0.47;;
32641;SDS011;19323;56.072;9.698;2022-11-22T04:34:20;0.57;;;0.40;;
32641;SDS011;19323;56.072;9.698;2022-11-22T04:36:45;1.52;;;0.52;;
32641;SDS011;19323;56.072;9.698;2022-11-22T04:39:10;1.00;;;0.35;;
32641;SDS011;19323;56.072;9.698;2022-11-22T04:41:36;0.77;;;0.57;;
32641;SDS011;19323;56.072;9.698;2022-11-22T04:44:01;1.55;;;0.40;;
32641;SDS011;19323;56.072;9.698;2022-11-22T04:46:45;2.58;;;0.60;;
32641;SDS011;19323;56.072;9.698;2022-11-22T04:49:10;2.00;;;0.50;;
32641;SDS011;19323;56.072;9.698;2022-11-22T04:51:35;1.85;;;0.50;;
32641;SDS011;19323;56.072;9.698;2022-11-22T04:54:19;5.18;;;0.68;;
32641;SDS011;19323;56.072;9.698;2022-11-22T04:56:44;0.52;;;0.45;;
32641;SDS011;19323;56.072;9.698;2022-11-22T04:59:10;3.72;;;0.77;;
32641;SDS011;19323;56.072;9.698;2022-11-22T05:01:36;5.38;;;0.52;;
32641;SDS011;19323;56.072;9.698;2022-11-22T05:04:01;3.55;;;0.85;;
32641;SDS011;19323;56.072;9.698;2022-11-22T05:06:26;1.52;;;0.82;;
32641;SDS011;19323;56.072;9.698;2022-11-22T05:08:51;2.78;;;0.68;;
32641;SDS011;19323;56.072;9.698;2022-11-22T05:11:17;4.07;;;0.73;;
32641;SDS011;19323;56.072;9.698;2022-11-22T05:13:42;4.70;;;0.95;;
32641;SDS011;19323;56.072;9.698;2022-11-22T05:16:10;4.30;;;0.95;;
32641;SDS011;19323;56.072;9.698;2022-11-22T05:18:37;1.85;;;0.80;;
32641;SDS011;19323;56.072;9.698;2022-11-22T05:21:06;1.95;;;0.47;;
32641;SDS011;19323;56.072;9.698;2022-11-22T05:23:32;3.85;;;0.55;;
32641;SDS011;19323;56.072;9.698;2022-11-22T05:26:17;3.78;;;0.82;;
32641;SDS011;19323;56.072;9.698;2022-11-22T05:28:42;1.60;;;0.90;;
32641;SDS011;19323;56.072;9.698;2022-11-22T05:31:08;3.75;;;0.82;;
32641;SDS011;19323;56.072;9.698;2022-11-22T05:33:36;5.07;;;1.38;;
32641;SDS011;19323;56.072;9.698;2022-11-22T05:36:02;3.63;;;1.25;;
32641;SDS011;19323;56.072;9.698;2022-11-22T05:38:28;2.88;;;0.95;;
32641;SDS011;19323;56.072;9.698;2022-11-22T05:40:53;8.00;;;1.50;;
32641;SDS011;19323;56.072;9.698;2022-11-22T05:43:18;4.57;;;1.77;;
32641;SDS011;19323;56.072;9.698;2022-11-22T05:45:44;3.67;;;1.40;;
32641;SDS011;19323;56.072;9.698;2022-11-22T05:48:09;3.90;;;1.42;;
32641;SDS011;19323;56.072;9.698;2022-11-22T05:50:34;4.80;;;1.92;;
32641;SDS011;19323;56.072;9.698;2022-11-22T05:53:00;7.80;;;2.67;;
32641;SDS011;19323;56.072;9.698;2022-11-22T05:55:26;3.50;;;1.58;;
32641;SDS011;19323;56.072;9.698;2022-11-22T05:57:52;4.72;;;1.85;;
32641;SDS011;19323;56.072;9.698;2022-11-22T06:00:17;9.15;;;2.30;;
32641;SDS011;19323;56.072;9.698;2022-11-22T06:02:43;6.55;;;2.10;;
32641;SDS011;19323;56.072;9.698;2022-11-22T06:05:08;6.57;;;2.25;;
32641;SDS011;19323;56.072;9.698;2022-11-22T06:07:33;8.20;;;2.10;;
32641;SDS011;19323;56.072;9.698;2022-11-22T06:09:58;7.28;;;2.53;;
32641;SDS011;19323;56.072;9.698;2022-11-22T06:12:24;9.98;;;2.38;;
32641;SDS011;19323;56.072;9.698;2022-11-22T06:14:49;6.78;;;2.05;;
32641;SDS011;19323;56.072;9.698;2022-11-22T06:17:14;5.28;;;1.75;;
32641;SDS011;19323;56.072;9.698;2022-11-22T06:19:40;3.95;;;1.67;;
32641;SDS011;19323;56.072;9.698;2022-11-22T06:22:05;2.70;;;1.48;;
32641;SDS011;19323;56.072;9.698;2022-11-22T06:24:30;4.88;;;2.05;;
32641;SDS011;19323;56.072;9.698;2022-11-22T06:26:55;8.30;;;2.50;;
32641;SDS011;19323;56.072;9.698;2022-11-22T06:29:21;4.38;;;1.70;;
32641;SDS011;19323;56.072;9.698;2022-11-22T06:31:46;5.57;;;1.77;;
32641;SDS011;19323;56.072;9.698;2022-11-22T06:34:11;9.32;;;1.73;;
32641;SDS011;19323;56.072;9.698;2022-11-22T06:36:37;6.75;;;1.55;;
32641;SDS011;19323;56.072;9.698;2022-11-22T06:39:03;7.20;;;2.10;;
32641;SDS011;19323;56.072;9.698;2022-11-22T06:41:32;3.80;;;1.52;;
32641;SDS011;19323;56.072;9.698;2022-11-22T06:44:02;7.30;;;2.35;;
32641;SDS011;19323;56.072;9.698;2022-11-22T06:46:29;6.10;;;1.95;;
32641;SDS011;19323;56.072;9.698;2022-11-22T06:48:54;4.25;;;1.48;;
32641;SDS011;19323;56.072;9.698;2022-11-22T06:51:20;3.97;;;1.45;;
32641;SDS011;19323;56.072;9.698;2022-11-22T06:53:48;3.88;;;1.50;;
32641;SDS011;19323;56.072;9.698;2022-11-22T06:56:18;6.88;;;1.58;;
32641;SDS011;19323;56.072;9.698;2022-11-22T06:58:50;7.80;;;2.15;;
32641;SDS011;19323;56.072;9.698;2022-11-22T07:01:17;4.47;;;2.15;;
32641;SDS011;19323;56.072;9.698;2022-11-22T07:03:47;6.03;;;1.70;;
32641;SDS011;19323;56.072;9.698;2022-11-22T07:06:14;4.25;;;1.73;;
32641;SDS011;19323;56.072;9.698;2022-11-22T07:08:41;7.25;;;1.88;;
32641;SDS011;19323;56.072;9.698;2022-11-22T07:11:11;5.72;;;1.55;;
32641;SDS011;19323;56.072;9.698;2022-11-22T07:13:39;2.67;;;1.30;;
32641;SDS011;19323;56.072;9.698;2022-11-22T07:16:05;8.65;;;1.48;;
32641;SDS011;19323;56.072;9.698;2022-11-22T07:18:32;4.45;;;1.50;;
32641;SDS011;19323;56.072;9.698;2022-11-22T07:21:02;3.65;;;1.70;;
32641;SDS011;19323;56.072;9.698;2022-11-22T07:23:28;3.03;;;1.10;;
32641;SDS011;19323;56.072;9.698;2022-11-22T07:25:54;7.00;;;1.75;;
32641;SDS011;19323;56.072;9.698;2022-11-22T07:28:19;8.13;;;1.95;;
32641;SDS011;19323;56.072;9.698;2022-11-22T07:30:45;5.70;;;1.42;;
32641;SDS011;19323;56.072;9.698;2022-11-22T07:33:10;3.67;;;1.25;;
32641;SDS011;19323;56.072;9.698;2022-11-22T07:35:36;4.53;;;1.42;;
32641;SDS011;19323;56.072;9.698;2022-11-22T07:38:01;2.92;;;1.30;;
32641;SDS011;19323;56.072;9.698;2022-11-22T07:40:27;3.95;;;1.60;;
32641;SDS011;19323;56.072;9.698;2022-11-22T07:42:53;2.25;;;1.25;;
32641;SDS011;19323;56.072;9.698;2022-11-22T07:45:18;4.18;;;1.48;;
32641;SDS011;19323;56.072;9.698;2022-11-22T07:47:43;6.35;;;1.50;;
32641;SDS011;19323;56.072;9.698;2022-11-22T07:50:09;2.97;;;1.25;;
32641;SDS011;19323;56.072;9.698;2022-11-22T07:52:34;5.40;;;1.27;;
32641;SDS011;19323;56.072;9.698;2022-11-22T07:54:59;3.03;;;1.50;;
32641;SDS011;19323;56.072;9.698;2022-11-22T07:57:25;1.77;;;1.05;;
32641;SDS011;19323;56.072;9.698;2022-11-22T07:59:50;3.10;;;1.15;;
32641;SDS011;19323;56.072;9.698;2022-11-22T08:02:15;3.58;;;1.40;;
32641;SDS011;19323;56.072;9.698;2022-11-22T08:04:41;5.53;;;0.90;;
32641;SDS011;19323;56.072;9.698;2022-11-22T08:07:06;1.90;;;0.85;;
32641;SDS011;19323;56.072;9.698;2022-11-22T08:09:33;2.28;;;1.30;;
32641;SDS011;19323;56.072;9.698;2022-11-22T08:11:58;2.05;;;0.98;;
32641;SDS011;19323;56.072;9.698;2022-11-22T08:14:23;2.88;;;0.85;;
32641;SDS011;19323;56.072;9.698;2022-11-22T08:16:49;2.80;;;1.00;;
32641;SDS011;19323;56.072;9.698;2022-11-22T08:19:14;5.13;;;1.20;;
32641;SDS011;19323;56.072;9.698;2022-11-22T08:21:45;2.78;;;0.85;;
32641;SDS011;19323;56.072;9.698;2022-11-22T08:24:11;2.60;;;1.60;;
32641;SDS011;19323;56.072;9.698;2022-11-22T08:26:37;3.65;;;1.20;;
32641;SDS011;19323;56.072;9.698;2022-11-22T08:29:03;2.22;;;1.20;;
32641;SDS011;19323;56.072;9.698;2022-11-22T08:31:30;1.70;;;0.63;;
32641;SDS011;19323;56.072;9.698;2022-11-22T08:33:55;1.95;;;0.95;;
32641;SDS011;19323;56.072;9.698;2022-11-22T08:36:21;4.72;;;1.10;;
32641;SDS011;19323;56.072;9.698;2022-11-22T08:38:46;6.03;;;1.10;;
32641;SDS011;19323;56.072;9.698;2022-11-22T08:41:12;2.65;;;0.98;;
32641;SDS011;19323;56.072;9.698;2022-11-22T08:43:37;2.67;;;1.10;;
32641;SDS011;19323;56.072;9.698;2022-11-22T08:46:03;2.47;;;1.05;;
32641;SDS011;19323;56.072;9.698;2022-11-22T08:48:29;1.60;;;0.90;;
32641;SDS011;19323;56.072;9.698;2022-11-22T08:50:56;2.80;;;1.02;;
32641;SDS011;19323;56.072;9.698;2022-11-22T08:53:26;2.53;;;0.95;;
32641;SDS011;19323;56.072;9.698;2022-11-22T08:55:54;1.48;;;0.80;;
32641;SDS011;19323;56.072;9.698;2022-11-22T08:58:20;1.92;;;0.95;;
32641;SDS011;19323;56.072;9.698;2022-11-22T09:00:46;1.10;;;0.60;;
32641;SDS011;19323;56.072;9.698;2022-11-22T09:03:11;2.78;;;0.80;;
32641;SDS011;19323;56.072;9.698;2022-11-22T09:05:37;2.25;;;1.00;;
32641;SDS011;19323;56.072;9.698;2022-11-22T09:08:02;1.65;;;0.98;;
32641;SDS011;19323;56.072;9.698;2022-11-22T09:10:28;3.33;;;0.85;;
32641;SDS011;19323;56.072;9.698;2022-11-22T09:12:53;7.28;;;1.67;;
32641;SDS011;19323;56.072;9.698;2022-11-22T09:15:18;1.27;;;0.50;;
32641;SDS011;19323;56.072;9.698;2022-11-22T09:17:43;1.20;;;0.77;;
32641;SDS011;19323;56.072;9.698;2022-11-22T09:20:09;1.25;;;0.77;;
32641;SDS011;19323;56.072;9.698;2022-11-22T09:22:35;1.70;;;0.95;;
32641;SDS011;19323;56.072;9.698;2022-11-22T09:25:00;1.15;;;0.80;;
32641;SDS011;19323;56.072;9.698;2022-11-22T09:27:26;1.50;;;0.73;;
32641;SDS011;19323;56.072;9.698;2022-11-22T09:29:51;2.42;;;0.73;;
32641;SDS011;19323;56.072;9.698;2022-11-22T09:32:17;1.52;;;0.60;;
32641;SDS011;19323;56.072;9.698;2022-11-22T09:34:42;1.60;;;0.43;;
32641;SDS011;19323;56.072;9.698;2022-11-22T09:37:07;0.85;;;0.63;;
32641;SDS011;19323;56.072;9.698;2022-11-22T09:39:33;1.50;;;0.88;;
32641;SDS011;19323;56.072;9.698;2022-11-22T09:50:18;1.90;;;0.80;;
32641;SDS011;19323;56.072;9.698;2022-11-22T09:53:10;1.40;;;0.68;;
32641;SDS011;19323;56.072;9.698;2022-11-22T09:55:47;1.55;;;0.57;;
32641;SDS011;19323;56.072;9.698;2022-11-22T09:58:19;1.05;;;0.68;;
32641;SDS011;19323;56.072;9.698;2022-11-22T10:00:51;3.00;;;0.70;;
32641;SDS011;19323;56.072;9.698;2022-11-22T10:05:54;1.33;;;0.70;;
32641;SDS011;19323;56.072;9.698;2022-11-22T10:08:42;1.73;;;0.50;;
32641;SDS011;19323;56.072;9.698;2022-11-22T10:11:14;1.58;;;1.00;;
32641;SDS011;19323;56.072;9.698;2022-11-22T10:14:49;1.88;;;0.75;;
32641;SDS011;19323;56.072;9.698;2022-11-22T10:16:50;1.17;;;0.65;;
32641;SDS011;19323;56.072;9.698;2022-11-22T10:19:22;1.43;;;0.60;;
32641;SDS011;19323;56.072;9.698;2022-11-22T10:22:12;0.95;;;0.70;;
32641;SDS011;19323;56.072;9.698;2022-11-22T10:24:38;1.33;;;0.77;;
32641;SDS011;19323;56.072;9.698;2022-11-22T10:27:04;1.63;;;0.77;;
32641;SDS011;19323;56.072;9.698;2022-11-22T10:30:22;1.35;;;0.60;;
32641;SDS011;19323;56.072;9.698;2022-11-22T10:32:39;2.40;;;0.98;;
32641;SDS011;19323;56.072;9.698;2022-11-22T10:40:12;1.88;;;0.65;;
32641;SDS011;19323;56.072;9.698;2022-11-22T10:42:56;0.57;;;0.43;;
32641;SDS011;19323;56.072;9.698;2022-11-22T10:51:26;0.98;;;0.55;;
32641;SDS011;19323;56.072;9.698;2022-11-22T10:56:55;1.05;;;0.47;;
32641;SDS011;19323;56.072;9.698;2022-11-22T11:02:10;1.58;;;0.80;;
32641;SDS011;19323;56.072;9.698;2022-11-22T11:04:56;1.55;;;0.80;;
32641;SDS011;19323;56.072;9.698;2022-11-22T11:07:24;1.20;;;0.50;;
32641;SDS011;19323;56.072;9.698;2022-11-22T11:09:58;0.98;;;0.55;;
32641;SDS011;19323;56.072;9.698;2022-11-22T11:12:30;3.00;;;0.70;;
32641;SDS011;19323;56.072;9.698;2022-11-22T11:15:33;0.98;;;0.47;;
32641;SDS011;19323;56.072;9.698;2022-11-22T11:18:04;1.10;;;0.50;;
32641;SDS011;19323;56.072;9.698;2022-11-22T11:20:37;1.25;;;0.82;;
32641;SDS011;19323;56.072;9.698;2022-11-22T11:23:07;1.15;;;0.70;;
32641;SDS011;19323;56.072;9.698;2022-11-22T11:25:34;0.70;;;0.63;;
32641;SDS011;19323;56.072;9.698;2022-11-22T11:28:05;2.42;;;0.80;;
32641;SDS011;19323;56.072;9.698;2022-11-22T11:30:38;1.00;;;0.75;;
32641;SDS011;19323;56.072;9.698;2022-11-22T11:33:13;1.30;;;0.80;;
32641;SDS011;19323;56.072;9.698;2022-11-22T11:35:44;0.85;;;0.68;;
32641;SDS011;19323;56.072;9.698;2022-11-22T11:38:27;1.23;;;0.60;;
32641;SDS011;19323;56.072;9.698;2022-11-22T11:40:55;0.80;;;0.70;;
32641;SDS011;19323;56.072;9.698;2022-11-22T11:43:21;1.63;;;0.80;;
32641;SDS011;19323;56.072;9.698;2022-11-22T11:45:48;1.25;;;1.10;;
32641;SDS011;19323;56.072;9.698;2022-11-22T11:48:47;2.20;;;1.13;;
32641;SDS011;19323;56.072;9.698;2022-11-22T11:51:07;0.82;;;0.73;;
32641;SDS011;19323;56.072;9.698;2022-11-22T11:53:48;2.35;;;1.10;;
32641;SDS011;19323;56.072;9.698;2022-11-22T11:59:51;0.93;;;0.65;;
32641;SDS011;19323;56.072;9.698;2022-11-22T12:04:29;2.70;;;1.00;;
32641;SDS011;19323;56.072;9.698;2022-11-22T12:07:00;1.73;;;1.15;;
32641;SDS011;19323;56.072;9.698;2022-11-22T12:09:29;1.35;;;0.98;;
32641;SDS011;19323;56.072;9.698;2022-11-22T12:12:36;3.17;;;1.65;;
32641;SDS011;19323;56.072;9.698;2022-11-22T12:14:52;1.75;;;0.95;;
32641;SDS011;19323;56.072;9.698;2022-11-22T12:17:26;2.47;;;0.90;;
32641;SDS011;19323;56.072;9.698;2022-11-22T12:19:58;1.38;;;1.02;;
32641;SDS011;19323;56.072;9.698;2022-11-22T12:22:30;1.88;;;1.08;;
32641;SDS011;19323;56.072;9.698;2022-11-22T12:25:20;1.10;;;0.82;;
32641;SDS011;19323;56.072;9.698;2022-11-22T12:27:50;1.42;;;1.15;;
32641;SDS011;19323;56.072;9.698;2022-11-22T12:30:15;0.85;;;0.82;;
32641;SDS011;19323;56.072;9.698;2022-11-22T12:32:44;1.85;;;0.75;;
32641;SDS011;19323;56.072;9.698;2022-11-22T12:35:20;1.80;;;0.93;;
32641;SDS011;19323;56.072;9.698;2022-11-22T12:37:50;1.35;;;1.00;;
32641;SDS011;19323;56.072;9.698;2022-11-22T12:45:53;1.45;;;1.15;;
32641;SDS011;19323;56.072;9.698;2022-11-22T12:50:55;2.83;;;1.13;;
32641;SDS011;19323;56.072;9.698;2022-11-22T12:53:29;1.20;;;1.10;;
32641;SDS011;19323;56.072;9.698;2022-11-22T12:58:39;0.98;;;0.93;;
32641;SDS011;19323;56.072;9.698;2022-11-22T13:06:33;1.57;;;1.30;;
32641;SDS011;19323;56.072;9.698;2022-11-22T13:09:11;1.45;;;1.02;;
32641;SDS011;19323;56.072;9.698;2022-11-22T13:11:46;1.10;;;1.00;;
32641;SDS011;19323;56.072;9.698;2022-11-22T13:14:14;1.35;;;0.80;;
32641;SDS011;19323;56.072;9.698;2022-11-22T13:16:43;1.35;;;0.88;;
32641;SDS011;19323;56.072;9.698;2022-11-22T13:19:10;1.10;;;1.00;;
32641;SDS011;19323;56.072;9.698;2022-11-22T13:24:45;1.08;;;0.82;;
32641;SDS011;19323;56.072;9.698;2022-11-22T13:27:40;1.60;;;0.80;;
32641;SDS011;19323;56.072;9.698;2022-11-22T13:30:19;2.25;;;0.90;;
32641;SDS011;19323;56.072;9.698;2022-11-22T13:32:50;2.17;;;1.05;;
32641;SDS011;19323;56.072;9.698;2022-11-22T13:37:55;2.05;;;1.20;;
32641;SDS011;19323;56.072;9.698;2022-11-22T13:40:28;1.02;;;0.90;;
32641;SDS011;19323;56.072;9.698;2022-11-22T13:45:50;1.15;;;0.93;;
32641;SDS011;19323;56.072;9.698;2022-11-22T13:51:04;2.55;;;1.15;;
32641;SDS011;19323;56.072;9.698;2022-11-22T13:53:31;2.90;;;1.08;;
32641;SDS011;19323;56.072;9.698;2022-11-22T13:58:48;1.33;;;1.00;;
32641;SDS011;19323;56.072;9.698;2022-11-22T14:06:47;1.40;;;1.02;;
32641;SDS011;19323;56.072;9.698;2022-11-22T14:17:30;1.27;;;1.10;;
32641;SDS011;19323;56.072;9.698;2022-11-22T14:20:10;1.13;;;1.02;;
32641;SDS011;19323;56.072;9.698;2022-11-22T14:22:48;1.27;;;1.17;;
32641;SDS011;19323;56.072;9.698;2022-11-22T14:28:00;0.88;;;0.73;;
32641;SDS011;19323;56.072;9.698;2022-11-22T14:30:44;1.88;;;1.17;;
32641;SDS011;19323;56.072;9.698;2022-11-22T14:33:17;2.08;;;1.08;;
32641;SDS011;19323;56.072;9.698;2022-11-22T14:43:50;2.05;;;0.88;;
32641;SDS011;19323;56.072;9.698;2022-11-22T14:46:17;1.52;;;0.82;;
32641;SDS011;19323;56.072;9.698;2022-11-22T14:48:51;1.17;;;0.82;;
32641;SDS011;19323;56.072;9.698;2022-11-22T14:51:26;1.23;;;0.90;;
32641;SDS011;19323;56.072;9.698;2022-11-22T14:53:57;1.02;;;0.93;;
32641;SDS011;19323;56.072;9.698;2022-11-22T14:56:28;1.33;;;0.65;;
32641;SDS011;19323;56.072;9.698;2022-11-22T15:01:44;4.97;;;1.10;;
32641;SDS011;19323;56.072;9.698;2022-11-22T15:07:18;5.40;;;1.30;;
32641;SDS011;19323;56.072;9.698;2022-11-22T15:10:48;2.25;;;1.20;;
32641;SDS011;19323;56.072;9.698;2022-11-22T15:13:10;4.25;;;1.10;;
32641;SDS011;19323;56.072;9.698;2022-11-22T15:15:59;1.98;;;1.38;;
32641;SDS011;19323;56.072;9.698;2022-11-22T15:18:31;3.40;;;0.77;;
32641;SDS011;19323;56.072;9.698;2022-11-22T15:20:58;3.10;;;1.00;;
32641;SDS011;19323;56.072;9.698;2022-11-22T15:23:24;12.18;;;1.38;;
32641;SDS011;19323;56.072;9.698;2022-11-22T15:25:58;6.00;;;1.33;;
32641;SDS011;19323;56.072;9.698;2022-11-22T15:28:27;4.72;;;1.15;;
32641;SDS011;19323;56.072;9.698;2022-11-22T15:30:55;4.55;;;1.30;;
32641;SDS011;19323;56.072;9.698;2022-11-22T15:33:27;10.75;;;1.45;;
32641;SDS011;19323;56.072;9.698;2022-11-22T15:38:57;3.15;;;1.13;;
32641;SDS011;19323;56.072;9.698;2022-11-22T15:41:25;2.20;;;1.17;;
32641;SDS011;19323;56.072;9.698;2022-11-22T15:43:51;4.10;;;0.90;;
32641;SDS011;19323;56.072;9.698;2022-11-22T15:46:18;2.53;;;1.15;;
32641;SDS011;19323;56.072;9.698;2022-11-22T15:48:46;1.90;;;1.10;;
32641;SDS011;19323;56.072;9.698;2022-11-22T15:53:42;3.67;;;0.88;;
32641;SDS011;19323;56.072;9.698;2022-11-22T15:56:32;1.95;;;1.15;;
32641;SDS011;19323;56.072;9.698;2022-11-22T15:59:02;6.88;;;0.90;;
32641;SDS011;19323;56.072;9.698;2022-11-22T16:01:36;2.50;;;1.00;;
32641;SDS011;19323;56.072;9.698;2022-11-22T16:04:03;6.95;;;1.30;;
32641;SDS011;19323;56.072;9.698;2022-11-22T16:06:29;1.35;;;1.17;;
32641;SDS011;19323;56.072;9.698;2022-11-22T16:08:57;2.92;;;1.23;;
32641;SDS011;19323;56.072;9.698;2022-11-22T16:14:11;5.60;;;1.20;;
32641;SDS011;19323;56.072;9.698;2022-11-22T16:17:25;2.90;;;1.52;;
32641;SDS011;19323;56.072;9.698;2022-11-22T16:25:36;3.60;;;1.13;;
32641;SDS011;19323;56.072;9.698;2022-11-22T16:33:25;4.85;;;1.30;;
32641;SDS011;19323;56.072;9.698;2022-11-22T16:35:51;5.05;;;1.20;;
32641;SDS011;19323;56.072;9.698;2022-11-22T16:38:18;3.40;;;1.30;;
32641;SDS011;19323;56.072;9.698;2022-11-22T16:40:43;4.95;;;1.27;;
32641;SDS011;19323;56.072;9.698;2022-11-22T16:43:19;4.47;;;1.50;;
32641;SDS011;19323;56.072;9.698;2022-11-22T16:45:49;4.88;;;1.13;;
32641;SDS011;19323;56.072;9.698;2022-11-22T16:48:22;5.15;;;1.23;;
32641;SDS011;19323;56.072;9.698;2022-11-22T16:50:51;3.53;;;1.27;;
32641;SDS011;19323;56.072;9.698;2022-11-22T16:53:21;6.18;;;1.58;;
32641;SDS011;19323;56.072;9.698;2022-11-22T16:55:47;2.95;;;1.55;;
32641;SDS011;19323;56.072;9.698;2022-11-22T16:58:15;3.78;;;1.02;;